Prairie Grove, Illinois
Current Conditions -  °F | °C
As of 3:55 PM on Friday 24 Oct 2014 (Local Time) from KUGN Reporting Station
Haze Haze  
Wind Chill: 56°   Ceiling: Unl
Heat Index: 56°   Visibility: 6mi
Dew Point: 50°   Wind: 7mph
Humidity: 80%   Direction: 120°ESE
Pressure: 29.96"   Gusts: NA
Location:  42.359°N, 88.2783°W
Report Text: KUGN 242055Z 12006KT 6SM HZ CLR 13/10 A2996 RMK AO2 SLP147 T01330100 56016
Loading
Personal Weather Stations






























Interactive Weather Map
Tropical Storm Tracking
New forecast layout! Learn more

10-Day Weather Forecast

Advertisements
Track Severe Weather on mobile